• Join FlightAware (Why Join?)
  • Login
  • US Flag 
12:11PM EDT


 

Airport Tracker/Info


-or-


 

Live Flight TrackerFlight Track Log ✈ N586MC ✈ 27-Sep-2013 ✈ KFWC - KIKV

Flight Track Log - Related Links

Times and Time Zones

All times are in EDT time to prevent confusion due to time zone crossing. See the N586MC flight status page for this flight to view local times or setup timezone preferences in your user account.

Time Position Orientation Groundspeed Altitude Reporting Facility
EDT Latitude Longitude Course Direction KTS MPH feet Rate Location/Type
02:08PM 38.4386 -88.5428 314° West 132 152 3,400  Level Kansas City Center
02:09PM 38.4633 -88.5767 313° West 132 152 3,900 480 Climbing Kansas City Center
02:10PM 38.4872 -88.6111 312° West 130 150 4,500 480 Climbing Kansas City Center
02:11PM 38.5142 -88.6461 315° West 134 154 5,000 480 Climbing Kansas City Center
02:12PM 38.5383 -88.6892 306° West 130 150 5,600 480 Climbing Kansas City Center
02:13PM 38.6086 -88.7503 311° West  Level FlightAware Approximate
02:13PM 38.5667 -88.7286 313° West 136 157 6,000  Level Kansas City Center
02:14PM 38.5919 -88.7669 310° West 150 173 5,900 -60 Descending Kansas City Center
02:15PM 38.6244 -88.8131 312° West 154 177 5,900  Level Kansas City Center
02:16PM 38.6553 -88.8542 314° West 158 182 5,900  Level Kansas City Center
02:18PM 38.6833 -88.8956 311° West 156 180 6,000 240 Climbing Kansas City Center
02:19PM 38.7094 -88.9350 310° West 149 171 6,500 480 Climbing Kansas City Center
02:20PM 38.7375 -88.9711 315° West 144 166 7,000 480 Climbing Kansas City Center
02:21PM 38.7642 -89.0150 308° West 135 155 7,600 420 Climbing Kansas City Center
02:22PM 38.7889 -89.0506 312° West 134 154 7,900 120 Climbing Kansas City Center
02:23PM 38.8189 -89.0939 312° West 148 170 7,900  Level Kansas City Center
02:24PM 38.8467 -89.1342 312° West 152 175 7,900  Level Kansas City Center
02:25PM 38.8772 -89.1792 311° West 154 177 7,900  Level Kansas City Center
02:26PM 38.9058 -89.2200 312° West 155 178 7,900  Level Kansas City Center
02:27PM 38.9372 -89.2650 312° West 157 181 7,900  Level Kansas City Center
02:28PM 38.9653 -89.3067 311° West 156 180 7,900  Level Kansas City Center
02:29PM 38.9961 -89.3514 312° West 155 178 7,900  Level Kansas City Center
02:30PM 39.0247 -89.3933 311° West 157 181 7,900  Level Kansas City Center
02:31PM 39.0561 -89.4383 312° West 157 181 7,900  Level Kansas City Center
02:32PM 39.0850 -89.4814 311° West 158 182 7,900  Level Kansas City Center
02:33PM 39.1136 -89.5233 311° West 157 181 7,900  Level Kansas City Center
02:34PM 39.1444 -89.5683 311° West 157 181 7,900  Level Kansas City Center
02:35PM 39.1731 -89.6108 311° West 157 181 8,000  Climbing Kansas City Center
02:36PM 39.2014 -89.6522 311° West 160 184 8,000  Level Kansas City Center
02:37PM 39.2300 -89.6944 311° West 159 183 8,000  Level Kansas City Center
02:38PM 39.2639 -89.7442 311° West 155 178 8,000  Level Kansas City Center
02:39PM 39.2931 -89.7867 312° West 157 181 8,000  Level Kansas City Center
02:40PM 39.3214 -89.8300 310° West 158 182 8,000  Level Kansas City Center
02:41PM 39.3494 -89.8719 311° West 157 181 8,000  Level Kansas City Center
02:42PM 39.3783 -89.9136 312° West 156 180 8,000  Level Kansas City Center
02:43PM 39.4069 -89.9550 312° West 155 178 8,000  Level Kansas City Center
02:44PM 39.4414 -90.0086 310° West 160 184 8,000  Level Kansas City Center
02:45PM 39.4694 -90.0514 310° West 159 183 8,100  Climbing Kansas City Center
02:46PM 39.4986 -90.0928 312° West 157 181 8,100  Level Kansas City Center
02:48PM 39.5269 -90.1361 310° West 157 181 8,100  Level Kansas City Center
02:49PM 39.5556 -90.1797 310° West 159 183 8,100  Level Kansas City Center
02:50PM 39.5900 -90.2317 311° West 158 182 8,100 -60 Level Kansas City Center
02:51PM 39.6178 -90.2733 311° West 155 178 8,000 -60 Descending Kansas City Center
02:52PM 39.6464 -90.3153 312° West 156 180 8,000  Level Kansas City Center
02:53PM 39.6742 -90.3589 310° West 156 180 8,000  Level Kansas City Center
02:54PM 39.7022 -90.4017 310° West 155 178 8,000  Level Kansas City Center
02:55PM 39.7311 -90.4453 311° West 157 181 8,000  Level Kansas City Center
02:56PM 39.7636 -90.4944 311° West 155 178 8,000  Level Kansas City Center
02:57PM 39.7928 -90.5392 310° West 158 182 8,000  Level Kansas City Center
02:58PM 39.8222 -90.5842 310° West 161 185 8,000  Level Kansas City Center
02:59PM 39.8494 -90.6258 310° West 156 180 8,000  Level Kansas City Center
03:00PM 39.8775 -90.6697 310° West 156 180 8,000  Level Kansas City Center
03:01PM 39.9061 -90.7117 312° West 155 178 8,000  Level Kansas City Center
03:02PM 39.9417 -90.7661 310° West 158 182 8,000  Level Kansas City Center
03:03PM 39.9694 -90.8097 310° West 159 183 8,000  Level Kansas City Center
03:04PM 40.0000 -90.8564 311° West 162 186 8,000  Level Kansas City Center
03:05PM 40.0300 -90.9011 311° West 163 188 8,000  Level Kansas City Center
03:06PM 40.0592 -90.9456 311° West 162 186 8,000  Level Kansas City Center
03:07PM 40.0936 -90.9975 311° West 163 188 8,000  Level Kansas City Center
03:08PM 40.1211 -91.0414 309° West 160 184 8,000  Level Kansas City Center
03:09PM 40.1486 -91.0856 309° West 159 183 8,000  Level Kansas City Center
03:10PM 40.1769 -91.1300 310° West 160 184 8,000  Level Kansas City Center
03:11PM 40.2061 -91.1742 311° West 161 185 8,000  Level Kansas City Center
03:12PM 40.2403 -91.2278 310° West 161 185 8,000  Level Kansas City Center
03:13PM 40.2683 -91.2725 309° West 161 185 8,000  Level Kansas City Center
03:14PM 40.2986 -91.3175 311° West 163 188 8,000  Level Kansas City Center
03:15PM 40.3264 -91.3617 310° West 160 184 8,000  Level Kansas City Center
03:16PM 40.3533 -91.4069 308° West 159 183 8,000  Level Kansas City Center
03:18PM 40.3892 -91.4603 311° West 163 188 8,000  Level Kansas City Center
03:19PM 40.4189 -91.5061 310° West 165 190 8,000  Level Kansas City Center
03:20PM 40.4472 -91.5506 310° West 163 188 8,000  Level Kansas City Center
03:21PM 40.4750 -91.5950 309° West 160 184 8,000  Level Kansas City Center
03:22PM 40.5033 -91.6403 309° West 161 185 8,000  Level Kansas City Center
03:23PM 40.5383 -91.6953 310° West 164 189 8,000  Level Kansas City Center
03:24PM 40.5678 -91.7406 311° West 164 189 8,000  Level Kansas City Center
03:25PM 40.5956 -91.7856 309° West 163 188 8,000  Level Kansas City Center
03:26PM 40.6236 -91.8294 310° West 161 185 8,100  Climbing Kansas City Center
03:27PM 40.6581 -91.8844 310° West 162 186 8,100  Level Kansas City Center
03:28PM 40.6869 -91.9292 310° West 163 188 8,100  Level Kansas City Center
03:29PM 40.7156 -91.9744 310° West 163 188 8,100  Level Kansas City Center
03:30PM 40.7442 -92.0200 310° West 163 188 8,100  Level Kansas City Center
03:31PM 40.7728 -92.0656 310° West 163 188 8,100  Level Kansas City Center
03:32PM 40.8069 -92.1206 309° West 163 188 8,100  Level Kansas City Center
03:33PM 40.8358 -92.1664 310° West 163 188 8,100  Level Kansas City Center
03:34PM 40.8642 -92.2114 310° West 162 186 8,100  Level Kansas City Center
03:35PM 40.8917 -92.2575 308° West 162 186 8,100  Level Kansas City Center
03:36PM 40.9206 -92.3044 309° West 164 189 8,100  Level Kansas City Center
03:37PM 40.9564 -92.3603 310° West 166 191 8,100  Level Kansas City Center
03:38PM 40.9856 -92.4053 311° West 165 190 8,100  Level Kansas City Center
03:39PM 41.0128 -92.4511 308° West 162 186 8,100 -60 Level Kansas City Center
03:41PM 41.0531 -92.5158 310° West 164 189 8,000 -60 Descending Chicago Center
03:42PM 41.0819 -92.5614 310° West 164 189 8,000  Level Chicago Center
03:43PM 41.1100 -92.6078 309° West 163 188 8,000  Level Chicago Center
03:44PM 41.1456 -92.6642 310° West 165 190 8,000  Level Chicago Center
03:45PM 41.1736 -92.7103 309° West 164 189 8,000  Level Chicago Center
03:46PM 41.2019 -92.7575 309° West 165 190 8,000  Level Chicago Center
03:47PM 41.2303 -92.8042 309° West 165 190 8,000  Level Chicago Center
03:48PM 41.2594 -92.8517 309° West 166 191 8,000  Level Chicago Center
03:49PM 41.2928 -92.9039 310° West 165 190 8,000  Level Minneapolis Center
03:50PM 41.3225 -92.9386 319° Northwest 163 188 8,000  Level Minneapolis Center
03:50PM 41.3231 -92.9544 273° West 163 188 8,000 -120 Level Minneapolis Center
03:51PM 41.3528 -92.9903 318° Northwest 163 188 7,900 -120 Descending Minneapolis Center
03:51PM 41.3519 -93.0017 264° West 164 189 7,900 -300 Level Minneapolis Center
03:52PM 41.3828 -93.0364 320° Northwest 167 192 7,600 -420 Descending Minneapolis Center
03:52PM 41.3828 -93.0539 270° West 166 191 7,500 -540 Descending Minneapolis Center
03:53PM 41.4131 -93.0881 320° Northwest 176 203 7,100 -540 Descending Minneapolis Center
03:53PM 41.4142 -93.1044 275° West 175 201 7,000 -540 Descending Minneapolis Center
03:54PM 41.4450 -93.1397 319° Northwest 177 204 6,600 -540 Descending Minneapolis Center
03:54PM 41.4447 -93.1547 269° West 176 203 6,500 -600 Descending Minneapolis Center
03:55PM 41.4753 -93.1886 320° Northwest 175 201 6,000 -600 Descending Minneapolis Center
03:55PM 41.4775 -93.2092 278° West 175 201 5,900 -600 Descending Minneapolis Center
03:56PM 41.5053 -93.2375 323° Northwest 172 198 5,400 -600 Descending Minneapolis Center
03:56PM 41.5069 -93.2586 276° West 171 197 5,300 -600 Descending Minneapolis Center
03:57PM 41.5353 -93.2894 321° Northwest 171 197 4,800 -600 Descending Minneapolis Center
03:57PM 41.5392 -93.3125 283° West 172 198 4,700 -600 Descending Minneapolis Center
03:58PM 41.5672 -93.3411 323° Northwest 175 201 4,200 -600 Descending Minneapolis Center
03:58PM 41.5689 -93.3636 276° West 174 200 4,100 -540 Descending Minneapolis Center
03:59PM 41.5972 -93.3931 322° Northwest 177 204 3,700 -600 Descending Minneapolis Center
03:59PM 41.6022 -93.4172 285° West 174 200 3,500 -600 Descending Minneapolis Center
04:00PM 41.6272 -93.4425 323° Northwest 170 196 3,100 -540 Descending Minneapolis Center
04:00PM 41.6306 -93.4669 280° West 170 196 3,000 -300 Descending Minneapolis Center